Time;durP1;ratioP1;P1;durP2;ratioP2;P2;SDS_P1;SDS_P2;PMS_P1;PMS_P2;Temp;Humidity;BMP_temperature;BMP_pressure;BME280_temperature;BME280_humidity;BME280_pressure;Samples;Min_cycle;Max_cycle;Signal;HPM_P1;HPM_P2
2021/01/02 00:01:01;;;;;;;15.07;9.80;;;;;;;3.88;67.28;101090.81;5019693;28;20057;-74
2021/01/02 00:03:48;;;;;;;14.97;9.10;;;;;;;3.59;67.48;101094.66;5003024;28;20038;-73
2021/01/02 00:06:17;;;;;;;17.63;9.80;;;;;;;3.70;67.15;101100.53;4996146;28;20030;-74
2021/01/02 00:08:49;;;;;;;15.23;9.60;;;;;;;3.70;67.46;101095.44;4995230;28;20495;-73
2021/01/02 00:11:21;;;;;;;15.77;10.17;;;;;;;3.56;67.79;101117.38;4997141;28;20054;-71
2021/01/02 00:14:07;;;;;;;14.53;8.43;;;;;;;3.28;67.86;101122.03;4998890;28;20018;-71
2021/01/02 00:16:42;;;;;;;13.97;9.17;;;;;;;2.69;69.38;101092.94;4937326;29;20043;-74
2021/01/02 00:19:32;;;;;;;18.30;9.07;;;;;;;3.01;70.23;101129.38;4941816;29;21429;-76
2021/01/02 00:22:15;;;;;;;15.25;9.13;;;;;;;3.08;69.72;101119.75;4935857;29;20054;-73
2021/01/02 00:24:54;;;;;;;13.17;8.97;;;;;;;3.20;69.42;101129.13;4953971;29;20035;-75
2021/01/02 00:27:38;;;;;;;14.90;9.18;;;;;;;3.28;69.22;101124.59;4953990;29;20250;-75
2021/01/02 00:30:08;;;;;;;12.43;8.03;;;;;;;3.32;68.89;101130.06;4945222;29;20046;-75
2021/01/02 00:32:40;;;;;;;13.60;8.00;;;;;;;3.35;68.83;101137.97;4940070;29;20039;-77
2021/01/02 00:35:11;;;;;;;15.50;9.07;;;;;;;3.36;68.20;101129.50;4934593;29;20449;-77
2021/01/02 00:37:42;;;;;;;13.83;8.53;;;;;;;3.35;68.51;101127.75;4934547;29;20040;-77
2021/01/02 00:40:10;;;;;;;14.00;8.70;;;;;;;3.12;68.69;101097.03;4936045;29;20094;-77
2021/01/02 00:42:38;;;;;;;12.30;7.33;;;;;;;3.40;68.19;101139.22;4938044;29;20032;-77
2021/01/02 00:45:06;;;;;;;12.93;8.27;;;;;;;3.43;68.03;101141.09;4935798;29;20040;-78
2021/01/02 00:47:34;;;;;;;13.37;7.70;;;;;;;3.28;68.39;101140.81;4936289;29;20120;-78
2021/01/02 00:50:00;;;;;;;12.87;7.23;;;;;;;3.27;68.31;101144.13;4934703;29;20035;-78
2021/01/02 00:52:44;;;;;;;13.43;8.23;;;;;;;3.14;68.60;101115.88;4934591;28;20039;-77
2021/01/02 00:55:13;;;;;;;15.57;8.40;;;;;;;3.27;68.36;101149.25;4994665;28;20026;-76
2021/01/02 00:58:04;;;;;;;11.67;7.23;;;;;;;3.38;67.79;101148.41;4996650;28;20038;-75
2021/01/02 01:00:34;;;;;;;12.53;7.13;;;;;;;3.43;67.61;101142.75;4997315;28;20488;-76
2021/01/02 01:03:27;;;;;;;18.27;9.50;;;;;;;3.43;68.06;101138.56;4993963;28;20400;-74
2021/01/02 01:05:55;;;;;;;13.63;8.83;;;;;;;3.37;67.77;101125.31;4997964;28;20080;-74
2021/01/02 01:08:24;;;;;;;16.10;9.43;;;;;;;3.46;67.55;101137.91;4995740;28;20023;-74
2021/01/02 01:10:50;;;;;;;12.17;7.83;;;;;;;3.49;67.39;101141.56;4994665;28;20417;-73
2021/01/02 01:13:21;;;;;;;13.47;8.20;;;;;;;3.50;66.99;101142.44;4992978;28;20101;-76
2021/01/02 01:15:47;;;;;;;13.47;8.63;;;;;;;3.24;67.07;101101.41;4996482;28;20034;-74
2021/01/02 01:18:18;;;;;;;13.77;8.47;;;;;;;3.44;67.74;101135.22;4995919;28;20454;-75
2021/01/02 01:20:46;;;;;;;13.13;7.70;;;;;;;3.12;67.79;101097.03;4997486;28;20105;-76
2021/01/02 01:23:36;;;;;;;11.77;8.00;;;;;;;3.06;67.75;101116.19;4995270;28;20023;-75
2021/01/02 01:26:22;;;;;;;15.85;7.97;;;;;;;3.00;68.11;101141.22;4994451;28;20033;-77
2021/01/02 01:28:55;;;;;;;13.93;7.90;;;;;;;2.92;68.12;101132.09;4994253;28;20026;-77
2021/01/02 01:31:21;;;;;;;15.27;7.93;;;;;;;2.99;67.76;101141.09;4993377;28;20492;-76
2021/01/02 01:33:51;;;;;;;11.37;7.50;;;;;;;2.98;67.70;101140.22;4995608;28;20033;-75
2021/01/02 01:36:22;;;;;;;11.73;7.50;;;;;;;2.79;67.72;101150.66;4995039;28;20027;-75
2021/01/02 01:38:55;;;;;;;12.03;7.67;;;;;;;2.24;68.69;101107.25;4995438;28;20034;-75
2021/01/02 01:41:36;;;;;;;13.10;7.53;;;;;;;2.46;68.67;101147.16;5016094;28;20022;-74
2021/01/02 01:44:10;;;;;;;14.23;7.87;;;;;;;2.63;68.61;101163.81;5013082;28;20033;-71
2021/01/02 01:46:50;;;;;;;14.10;7.63;;;;;;;2.63;68.58;101153.63;5013204;28;20026;-73
2021/01/02 01:49:44;;;;;;;14.45;8.75;;;;;;;2.74;68.52;101154.47;4999482;28;20064;-76
2021/01/02 01:52:18;;;;;;;11.53;7.43;;;;;;;2.18;68.10;101166.97;5012842;28;20030;-77
2021/01/02 01:55:07;;;;;;;11.03;7.30;;;;;;;1.99;69.71;101162.91;4994804;28;20037;-73
2021/01/02 01:57:40;;;;;;;13.13;7.87;;;;;;;2.07;69.92;101161.00;4993597;28;20113;-72
2021/01/02 02:00:14;;;;;;;13.40;7.90;;;;;;;1.99;69.78;101132.34;4992821;28;20036;-76
2021/01/02 02:02:39;;;;;;;16.07;8.53;;;;;;;2.22;69.68;101162.25;4995468;28;20030;-72
2021/01/02 02:05:09;;;;;;;11.87;7.77;;;;;;;2.20;70.40;101147.63;4999505;28;20029;-73
2021/01/02 02:07:53;;;;;;;11.73;7.40;;;;;;;2.00;69.92;101129.03;4993372;28;20057;-74
2021/01/02 02:11:02;;;;;;;11.13;7.60;;;;;;;1.84;70.64;101157.44;4996386;28;20030;-76
2021/01/02 02:14:11;;;;;;;12.43;7.32;;;;;;;1.60;71.48;101156.28;4932965;29;20040;-76
2021/01/02 02:16:52;;;;;;;12.60;8.20;;;;;;;1.54;71.61;101155.78;4847519;29;20060;-78
2021/01/02 02:19:38;;;;;;;14.93;8.03;;;;;;;1.75;71.23;101166.88;4845621;29;20692;-75
2021/01/02 02:22:07;;;;;;;13.00;7.20;;;;;;;1.77;70.92;101148.41;4844623;29;20048;-75
2021/01/02 02:24:37;;;;;;;11.90;7.43;;;;;;;1.87;70.06;101149.16;4848312;29;20053;-75
2021/01/02 02:27:03;;;;;;;16.00;8.70;;;;;;;1.78;70.21;101123.84;4839267;29;20042;-73
2021/01/02 02:29:45;;;;;;;14.17;7.90;;;;;;;1.92;70.38;101158.09;4842858;29;20457;-73
2021/01/02 02:32:17;;;;;;;10.73;6.80;;;;;;;1.99;69.96;101160.34;4840900;29;20061;-75
2021/01/02 02:34:44;;;;;;;13.73;7.27;;;;;;;1.99;70.06;101162.03;4839767;29;20041;-76
2021/01/02 02:37:09;;;;;;;13.13;7.53;;;;;;;1.92;69.63;101128.41;4839651;29;20041;-75
2021/01/02 02:39:34;;;;;;;14.40;9.07;;;;;;;2.18;69.63;101159.31;4841644;29;20519;-76
2021/01/02 02:42:02;;;;;;;13.57;8.77;;;;;;;2.20;68.59;101145.94;4839166;29;20054;-75
2021/01/02 02:44:36;;;;;;;13.97;9.37;;;;;;;2.30;68.89;101149.25;4838806;29;20124;-72
2021/01/02 02:47:02;;;;;;;12.27;8.00;;;;;;;2.09;69.48;101132.34;4840420;29;20046;-75
2021/01/02 02:49:36;;;;;;;14.00;8.27;;;;;;;2.09;70.24;101155.28;4909590;29;20142;-74
2021/01/02 02:52:19;;;;;;;14.40;8.43;;;;;;;1.90;70.70;101151.97;4943605;28;20043;-79
2021/01/02 02:54:45;;;;;;;16.47;8.60;;;;;;;2.02;70.55;101158.09;4993146;28;20033;-77
2021/01/02 02:57:15;;;;;;;14.37;8.67;;;;;;;1.77;71.63;101152.63;5001663;28;20038;-77
2021/01/02 02:59:40;;;;;;;13.63;8.83;;;;;;;1.76;71.23;101153.38;4996345;28;20128;-80
2021/01/02 03:02:06;;;;;;;16.60;9.07;;;;;;;1.76;71.14;101143.19;4992869;28;20153;-74
2021/01/02 03:04:35;;;;;;;15.37;8.50;;;;;;;1.81;71.16;101146.09;4992736;28;20041;-75
2021/01/02 03:07:04;;;;;;;11.80;7.73;;;;;;;1.73;70.73;101143.84;4995457;28;20040;-79
2021/01/02 03:09:31;;;;;;;12.93;7.95;;;;;;;1.70;70.31;101158.84;4993577;28;20401;-77
2021/01/02 03:11:57;;;;;;;12.00;7.63;;;;;;;1.58;70.21;101132.34;4993568;28;20484;-76
2021/01/02 03:14:22;;;;;;;13.23;7.67;;;;;;;1.73;69.99;101140.38;4992146;28;20117;-74
2021/01/02 03:16:47;;;;;;;11.60;7.33;;;;;;;1.89;69.75;101163.78;4971197;28;20042;-75
2021/01/02 03:19:13;;;;;;;12.90;8.50;;;;;;;1.93;68.92;101153.13;5011307;28;20026;-74
2021/01/02 03:21:38;;;;;;;13.50;7.37;;;;;;;2.06;68.16;101166.88;5011742;28;20035;-74
2021/01/02 03:24:07;;;;;;;11.43;6.80;;;;;;;1.78;68.00;101126.38;5011309;28;20022;-75
2021/01/02 03:26:32;;;;;;;12.17;6.93;;;;;;;1.87;68.61;101173.00;5011849;28;20036;-74
2021/01/02 03:28:58;;;;;;;13.17;8.03;;;;;;;1.95;68.58;101171.06;5010054;28;20320;-77
2021/01/02 03:31:24;;;;;;;11.20;6.77;;;;;;;1.99;68.93;101170.53;5009611;28;20065;-77
2021/01/02 03:33:50;;;;;;;12.07;7.47;;;;;;;2.01;68.68;101158.84;5010857;28;20026;-75
2021/01/02 03:36:16;;;;;;;11.13;7.33;;;;;;;1.90;68.77;101127.38;5005216;28;20547;-78
2021/01/02 03:38:52;;;;;;;10.80;7.50;;;;;;;2.16;68.21;101174.50;4993373;28;20023;-75
2021/01/02 03:41:17;;;;;;;11.90;7.70;;;;;;;2.15;68.29;101175.25;4993373;28;20038;-76
2021/01/02 03:43:43;;;;;;;14.40;8.23;;;;;;;2.09;68.47;101185.84;4993820;28;20488;-75
2021/01/02 03:46:08;;;;;;;13.30;8.87;;;;;;;1.98;68.57;101170.44;4994836;28;20031;-77
2021/01/02 03:48:34;;;;;;;15.57;8.97;;;;;;;2.02;68.72;101178.47;4992749;28;20092;-77
2021/01/02 03:50:59;;;;;;;13.67;8.67;;;;;;;1.94;69.10;101164.19;4994958;28;20031;-75
2021/01/02 03:53:24;;;;;;;11.80;7.93;;;;;;;2.04;68.63;101184.56;5006879;28;20018;-77
2021/01/02 03:55:50;;;;;;;14.33;8.30;;;;;;;2.10;68.18;101191.81;4992374;28;20030;-75
2021/01/02 03:58:15;;;;;;;16.90;8.90;;;;;;;1.78;67.84;101146.75;4994469;28;20023;-75
2021/01/02 04:00:41;;;;;;;12.63;8.10;;;;;;;2.01;67.64;101196.16;4993817;28;20061;-76
2021/01/02 04:03:06;;;;;;;13.07;8.03;;;;;;;1.94;67.93;101194.75;4995792;28;20049;-77
2021/01/02 04:05:34;;;;;;;15.87;8.30;;;;;;;1.92;67.75;101191.19;5000202;28;20029;-75
2021/01/02 04:08:00;;;;;;;13.00;8.33;;;;;;;1.96;67.90;101207.59;5010915;28;20498;-75
2021/01/02 04:10:25;;;;;;;13.03;8.00;;;;;;;1.92;67.94;101201.38;5003402;28;20018;-74
2021/01/02 04:12:51;;;;;;;14.97;7.73;;;;;;;1.98;68.07;101211.19;5005530;28;20507;-71
2021/01/02 04:15:16;;;;;;;14.40;7.87;;;;;;;1.93;67.67;101203.13;4993751;28;20038;-77
2021/01/02 04:17:44;;;;;;;13.27;8.10;;;;;;;2.02;67.61;101226.84;4994591;28;20046;-75
2021/01/02 04:20:11;;;;;;;14.80;9.17;;;;;;;1.99;67.66;101211.28;4993091;28;20452;-74
2021/01/02 04:22:36;;;;;;;14.70;8.00;;;;;;;1.82;67.83;101219.19;4957442;28;20046;-74
2021/01/02 04:25:03;;;;;;;22.33;13.27;;;;;;;1.55;69.19;101222.06;4993091;28;20061;-72
2021/01/02 04:27:29;;;;;;;25.27;15.00;;;;;;;0.80;71.74;101234.25;4995115;28;20044;-75
2021/01/02 04:29:54;;;;;;;24.67;14.53;;;;;;;0.76;72.15;101235.63;4991684;28;20050;-75
2021/01/02 04:32:20;;;;;;;23.70;15.30;;;;;;;0.93;71.74;101226.06;4994055;28;20035;-75
2021/01/02 04:34:45;;;;;;;23.37;16.33;;;;;;;0.54;71.82;101187.09;4992298;28;20025;-74
2021/01/02 04:37:11;;;;;;;24.27;15.00;;;;;;;0.82;71.91;101234.38;4990250;28;20042;-75
2021/01/02 04:39:36;;;;;;;31.10;16.23;;;;;;;0.73;72.53;101232.81;4998543;28;20022;-74
2021/01/02 04:42:02;;;;;;;32.73;16.90;;;;;;;0.66;72.79;101235.59;4990748;28;20058;-74
2021/01/02 04:44:28;;;;;;;25.23;13.97;;;;;;;0.62;72.62;101228.44;4994336;28;20408;-74
2021/01/02 04:46:55;;;;;;;27.80;14.43;;;;;;;0.63;72.61;101232.75;4993943;28;20069;-74
2021/01/02 04:49:21;;;;;;;30.03;16.97;;;;;;;0.57;73.28;101258.50;4997526;28;20496;-75
2021/01/02 04:51:46;;;;;;;24.90;16.10;;;;;;;0.56;73.30;101255.81;4994577;28;20077;-71
2021/01/02 04:54:13;;;;;;;34.80;17.83;;;;;;;0.39;74.34;101261.94;4997299;28;20026;-78
2021/01/02 04:56:38;;;;;;;31.43;20.50;;;;;;;0.24;74.15;101261.44;5000314;28;20602;-71
2021/01/02 04:59:09;;;;;;;34.10;16.37;;;;;;;-0.04;74.58;101226.81;5014220;28;20040;-72
2021/01/02 05:01:37;;;;;;;41.13;17.97;;;;;;;0.20;74.50;101249.22;5014063;28;20100;-69
2021/01/02 05:04:03;;;;;;;34.37;16.03;;;;;;;0.18;74.70;101261.78;5013649;28;20026;-73
2021/01/02 05:06:28;;;;;;;34.40;15.47;;;;;;;-0.14;76.12;101247.00;5006273;28;20117;-73
2021/01/02 05:08:54;;;;;;;31.40;15.43;;;;;;;0.04;76.16;101278.28;5012604;28;20026;-73
2021/01/02 05:11:20;;;;;;;24.47;13.60;;;;;;;0.20;76.21;101275.50;5014014;28;20117;-73
2021/01/02 05:13:46;;;;;;;30.47;14.77;;;;;;;0.31;75.93;101272.31;5013690;28;20109;-73
2021/01/02 05:16:34;;;;;;;39.43;15.33;;;;;;;0.22;76.11;101283.25;5013934;28;20037;-73
2021/01/02 05:19:09;;;;;;;46.53;15.63;;;;;;;0.23;76.31;101288.47;5013356;28;20424;-73
2021/01/02 05:21:36;;;;;;;40.63;15.03;;;;;;;0.15;77.11;101277.63;5013613;28;20108;-73
2021/01/02 05:24:28;;;;;;;42.27;15.33;;;;;;;0.36;76.87;101294.69;5013753;28;20022;-73
2021/01/02 05:26:58;;;;;;;44.90;16.60;;;;;;;0.55;76.64;101303.22;4972130;28;20034;-73
2021/01/02 05:29:26;;;;;;;33.20;15.97;;;;;;;0.58;75.48;101274.66;4972023;28;20038;-74
2021/01/02 05:31:59;;;;;;;40.33;16.30;;;;;;;0.61;75.53;101296.16;4971593;28;20611;-73
2021/01/02 05:34:29;;;;;;;63.50;20.77;;;;;;;0.42;75.79;101258.00;4972135;28;20065;-73
2021/01/02 05:37:02;;;;;;;61.10;18.53;;;;;;;0.54;76.51;101310.72;4972243;28;20082;-73
2021/01/02 05:39:41;;;;;;;42.20;17.23;;;;;;;0.23;76.42;101264.75;4971060;28;20455;-73
2021/01/02 05:42:08;;;;;;;39.22;18.45;;;;;;;0.33;76.08;101295.28;4971677;28;20035;-73
2021/01/02 05:44:36;;;;;;;44.77;17.60;;;;;;;-0.07;76.83;101276.41;4972002;28;20057;-73
2021/01/02 05:47:02;;;;;;;58.10;17.23;;;;;;;0.24;76.73;101314.78;4972164;28;20050;-73
2021/01/02 05:49:41;;;;;;;68.27;18.37;;;;;;;0.04;77.82;101321.44;4955424;28;20412;-73
2021/01/02 05:52:11;;;;;;;56.65;19.52;;;;;;;0.09;77.22;101306.66;4972000;28;20045;-73
2021/01/02 05:54:41;;;;;;;46.80;17.57;;;;;;;0.14;77.03;101326.63;4951088;28;20073;-73
2021/01/02 05:57:07;;;;;;;43.27;16.77;;;;;;;0.07;77.10;101321.72;4971774;28;20042;-74
2021/01/02 05:59:36;;;;;;;50.60;18.93;;;;;;;-0.02;77.50;101326.84;4970887;28;20086;-73
2021/01/02 06:02:29;;;;;;;50.53;18.17;;;;;;;-0.37;79.34;101342.19;4971775;28;20049;-73
2021/01/02 06:05:05;;;;;;;39.47;17.80;;;;;;;-0.50;79.22;101342.69;5012515;28;20476;-73
2021/01/02 06:07:32;;;;;;;36.57;19.40;;;;;;;-0.36;79.00;101353.25;5013041;28;20026;-73
2021/01/02 06:09:59;;;;;;;40.37;20.43;;;;;;;-0.40;78.64;101348.59;5013006;28;20049;-73
2021/01/02 06:12:29;;;;;;;39.40;20.00;;;;;;;-0.54;79.63;101355.78;5012872;28;20055;-71
2021/01/02 06:14:59;;;;;;;83.07;44.60;;;;;;;-0.39;79.31;101360.56;5012612;28;20084;-71
2021/01/02 06:17:31;;;;;;;49.33;30.17;;;;;;;-0.27;79.02;101356.66;4994213;28;20558;-71
2021/01/02 06:19:58;;;;;;;38.90;20.77;;;;;;;-0.29;78.98;101353.06;5012945;28;20087;-71
2021/01/02 06:22:25;;;;;;;33.07;19.93;;;;;;;-0.29;78.56;101362.31;5012502;28;20026;-71
2021/01/02 06:24:51;;;;;;;32.77;19.77;;;;;;;-0.51;79.07;101335.81;5013133;28;20076;-72
2021/01/02 06:27:19;;;;;;;34.97;20.63;;;;;;;-0.41;78.82;101362.03;5012616;28;20104;-71
2021/01/02 06:29:59;;;;;;;38.17;18.67;;;;;;;-0.49;79.84;101374.00;5012367;28;20483;-72
2021/01/02 06:32:26;;;;;;;45.30;20.00;;;;;;;-0.61;79.93;101337.31;5012783;28;20057;-72
2021/01/02 06:35:10;;;;;;;59.47;30.07;;;;;;;-0.12;79.63;101376.63;5012696;28;20037;-72
2021/01/02 06:37:47;;;;;;;54.03;24.23;;;;;;;-0.02;79.73;101379.25;5012098;28;20066;-72
2021/01/02 06:40:19;;;;;;;71.40;26.83;;;;;;;0.11;79.49;101379.66;5012037;28;20044;-71
2021/01/02 06:42:59;;;;;;;77.67;30.83;;;;;;;0.17;79.16;101375.91;5011994;28;20117;-72
2021/01/02 06:45:39;;;;;;;67.83;31.57;;;;;;;0.15;79.01;101383.41;5012632;28;20032;-72
2021/01/02 06:48:17;;;;;;;68.33;30.87;;;;;;;0.07;78.94;101380.09;5012398;28;20040;-71
2021/01/02 06:50:48;;;;;;;79.10;35.67;;;;;;;-0.13;79.80;101363.00;5012669;28;20111;-71
2021/01/02 06:53:26;;;;;;;65.53;28.20;;;;;;;-0.03;79.71;101395.25;5011990;28;20058;-71
2021/01/02 06:56:16;;;;;;;82.57;41.27;;;;;;;0.08;79.79;101356.50;5011843;28;20486;-72
2021/01/02 06:58:47;;;;;;;73.17;29.83;;;;;;;0.25;79.94;101380.94;5012277;28;20026;-71
2021/01/02 07:01:15;;;;;;;95.17;34.17;;;;;;;0.22;79.73;101382.31;5011606;28;20125;-71
2021/01/02 07:03:41;;;;;;;107.37;35.47;;;;;;;-0.15;80.28;101320.47;5011810;28;20026;-71
2021/01/02 07:06:24;;;;;;;87.57;30.87;;;;;;;0.35;79.58;101376.72;5012008;28;20026;-71
2021/01/02 07:08:59;;;;;;;82.57;28.63;;;;;;;0.33;80.07;101384.19;5011537;28;20034;-71
2021/01/02 07:11:39;;;;;;;71.53;26.93;;;;;;;0.15;81.13;101379.19;5011930;28;20026;-71
2021/01/02 07:14:10;;;;;;;59.78;24.00;;;;;;;0.14;81.13;101357.09;5011617;28;20038;-71
2021/01/02 07:16:45;;;;;;;56.70;24.03;;;;;;;0.22;80.92;101360.34;5012031;28;20105;-72
2021/01/02 07:22:11;;;;;;;58.13;29.90;;;;;;;0.52;79.63;101357.94;5011787;28;20045;-71
2021/01/02 07:24:46;;;;;;;48.30;24.10;;;;;;;0.75;79.87;101393.09;5011719;28;20018;-72
2021/01/02 07:27:12;;;;;;;48.30;21.93;;;;;;;0.92;79.56;101414.94;5011478;28;20042;-71
2021/01/02 07:29:39;;;;;;;33.60;20.67;;;;;;;1.09;78.77;101406.31;5010562;28;20535;-71
2021/01/02 07:32:17;;;;;;;39.80;21.50;;;;;;;1.07;77.91;101393.47;5011043;28;20053;-71
2021/01/02 07:34:46;;;;;;;28.20;16.50;;;;;;;0.84;78.16;101400.66;5011680;28;20030;-71
2021/01/02 07:37:20;;;;;;;38.63;20.52;;;;;;;1.02;77.82;101403.97;5011696;28;20076;-71
2021/01/02 07:39:59;;;;;;;35.43;25.30;;;;;;;0.91;78.13;101413.16;5011486;28;20052;-71
2021/01/02 07:42:30;;;;;;;59.72;38.80;;;;;;;1.10;77.47;101408.09;5011178;28;20030;-72
2021/01/02 07:45:10;;;;;;;41.57;28.50;;;;;;;1.34;76.46;101405.97;5011515;28;20066;-71
2021/01/02 07:47:44;;;;;;;28.35;18.52;;;;;;;1.25;76.72;101406.03;5011438;28;20038;-71
2021/01/02 07:50:11;;;;;;;67.53;29.27;;;;;;;1.27;77.51;101412.13;5011344;28;20110;-71
2021/01/02 07:53:03;;;;;;;36.23;20.80;;;;;;;1.18;77.87;101408.78;5011288;28;20025;-72
2021/01/02 07:55:33;;;;;;;36.47;20.70;;;;;;;1.34;78.43;101419.56;5010714;28;20080;-71
2021/01/02 07:58:02;;;;;;;33.33;19.52;;;;;;;1.59;77.10;101411.56;5011334;28;20044;-71
2021/01/02 08:00:28;;;;;;;27.17;15.93;;;;;;;1.53;77.35;101417.00;5011586;28;20026;-71
2021/01/02 08:03:01;;;;;;;26.83;19.20;;;;;;;1.71;76.62;101402.47;5010161;28;20617;-71
2021/01/02 08:05:27;;;;;;;50.37;33.53;;;;;;;1.80;75.87;101373.47;4988864;28;20042;-71
2021/01/02 08:07:56;;;;;;;54.67;35.83;;;;;;;2.19;75.10;101400.59;4988833;28;20049;-71
2021/01/02 08:10:22;;;;;;;;;;;;;;;2.24;75.03;101405.31;4989185;28;20077;-71
2021/01/02 08:12:52;;;;;;;43.80;30.10;;;;;;;2.06;76.29;101401.19;4989006;28;20437;-71
2021/01/02 08:15:28;;;;;;;37.08;26.67;;;;;;;2.15;75.57;101373.94;4988681;28;20088;-71
2021/01/02 08:17:54;;;;;;;42.77;25.50;;;;;;;2.39;75.80;101400.63;4989182;28;20030;-71
2021/01/02 08:20:19;;;;;;;38.90;26.57;;;;;;;2.44;76.75;101408.66;4988928;28;20050;-71
2021/01/02 08:22:44;;;;;;;45.57;27.77;;;;;;;2.41;76.38;101382.91;4974801;28;20038;-71
2021/01/02 08:25:15;;;;;;;42.27;25.57;;;;;;;2.74;76.49;101402.72;4992996;28;20096;-71
2021/01/02 08:27:42;;;;;;;64.80;32.27;;;;;;;2.98;75.55;101395.31;4992613;28;20113;-71
2021/01/02 08:30:10;;;;;;;33.67;21.73;;;;;;;3.05;75.31;101400.16;4987326;28;20121;-71
2021/01/02 08:32:38;;;;;;;35.80;22.10;;;;;;;3.04;75.44;101405.09;4992772;28;20034;-71
2021/01/02 08:35:34;;;;;;;49.63;30.33;;;;;;;3.28;75.03;101388.38;4992545;28;20090;-72
2021/01/02 08:38:07;;;;;;;34.83;24.80;;;;;;;3.47;75.25;101394.97;4934802;29;20036;-71
2021/01/02 08:40:43;;;;;;;36.33;24.70;;;;;;;3.62;74.96;101396.16;4931496;29;20072;-71
2021/01/02 08:43:25;;;;;;;33.83;25.87;;;;;;;3.84;74.40;101380.00;4945858;28;20047;-71
2021/01/02 08:45:59;;;;;;;38.60;28.20;;;;;;;3.93;74.03;101387.50;4972202;28;20035;-71
2021/01/02 08:48:25;;;;;;;39.63;27.10;;;;;;;3.94;74.24;101366.28;4972432;28;20049;-71
2021/01/02 08:50:51;;;;;;;47.10;31.92;;;;;;;4.14;74.42;101383.19;4972239;28;20027;-72
2021/01/02 08:53:26;;;;;;;28.00;19.63;;;;;;;4.13;75.68;101396.72;4971812;28;20062;-71
2021/01/02 08:55:51;;;;;;;26.90;17.77;;;;;;;4.05;76.30;101384.25;4972256;28;20045;-72
2021/01/02 08:58:35;;;;;;;26.93;19.93;;;;;;;4.15;76.64;101384.94;4972327;28;20031;-71
2021/01/02 09:01:02;;;;;;;28.53;20.20;;;;;;;4.31;76.00;101390.47;4971735;28;20034;-73
2021/01/02 09:03:28;;;;;;;25.13;17.93;;;;;;;4.60;76.07;101389.25;4940225;28;20390;-72
2021/01/02 09:05:54;;;;;;;27.80;19.40;;;;;;;4.54;76.63;101376.00;4971180;28;20117;-71
2021/01/02 09:08:20;;;;;;;25.98;18.73;;;;;;;4.52;77.87;101385.22;4971676;28;20031;-71
2021/01/02 09:10:47;;;;;;;26.95;19.83;;;;;;;4.72;77.61;101385.84;4969222;28;20836;-72
2021/01/02 09:13:22;;;;;;;27.48;20.38;;;;;;;4.95;76.79;101374.78;4971820;28;20031;-71
2021/01/02 09:16:00;;;;;;;30.88;20.88;;;;;;;5.01;76.91;101372.66;4994631;28;20038;-72
2021/01/02 09:18:29;;;;;;;27.35;19.05;;;;;;;5.24;76.50;101370.91;4995363;28;20030;-72
2021/01/02 09:20:55;;;;;;;30.50;21.52;;;;;;;5.17;77.07;101355.09;4996003;28;20472;-72
2021/01/02 09:23:34;;;;;;;31.15;20.42;;;;;;;5.22;76.56;101340.06;4994490;28;20037;-72
2021/01/02 09:26:01;;;;;;;32.00;25.77;;;;;;;5.54;75.92;101346.59;4999156;28;20546;-72
2021/01/02 09:28:26;;;;;;;34.13;23.48;;;;;;;5.78;75.15;101354.25;5013935;28;20120;-72
2021/01/02 09:30:52;;;;;;;32.17;21.38;;;;;;;5.89;74.31;101337.94;5013434;28;20481;-71
2021/01/02 09:33:18;;;;;;;31.60;21.88;;;;;;;6.02;74.08;101341.41;5011644;28;20034;-72
2021/01/02 09:35:46;;;;;;;32.80;21.70;;;;;;;6.18;73.19;101339.13;5004019;28;20036;-72
2021/01/02 09:38:12;;;;;;;36.85;21.10;;;;;;;6.14;72.71;101316.59;5013349;28;20022;-72
2021/01/02 09:40:42;;;;;;;33.33;22.50;;;;;;;6.23;72.81;101319.81;5011582;28;20022;-72
2021/01/02 09:43:11;;;;;;;37.70;23.27;;;;;;;6.54;72.16;101344.97;5013163;28;20468;-72
2021/01/02 09:45:38;;;;;;;27.75;19.45;;;;;;;6.50;72.33;101347.22;5012604;28;20060;-72
2021/01/02 09:48:03;;;;;;;29.20;19.80;;;;;;;6.59;72.50;101337.56;5011901;28;20070;-72
2021/01/02 09:50:29;;;;;;;27.70;20.88;;;;;;;6.55;72.64;101335.59;5013169;28;20049;-72
2021/01/02 09:52:54;;;;;;;29.05;20.80;;;;;;;6.63;72.40;101337.88;5012459;28;20069;-72
2021/01/02 09:55:20;;;;;;;31.40;20.38;;;;;;;6.64;72.41;101290.91;4994050;28;20042;-72
2021/01/02 09:57:50;;;;;;;28.52;21.50;;;;;;;6.73;72.03;101300.91;5010455;28;20374;-72
2021/01/02 10:00:17;;;;;;;28.45;19.60;;;;;;;6.93;71.85;101314.16;5011658;28;20516;-72
2021/01/02 10:02:42;;;;;;;28.90;20.88;;;;;;;7.08;71.46;101296.28;5009851;28;20072;-72
2021/01/02 10:05:09;;;;;;;29.15;20.10;;;;;;;7.00;71.38;101300.91;5005182;28;20548;-72
2021/01/02 10:07:34;;;;;;;29.88;20.63;;;;;;;7.25;71.35;101303.41;4995926;28;20128;-72
2021/01/02 10:10:00;;;;;;;43.55;28.63;;;;;;;7.27;70.61;101258.13;5000558;28;20143;-72
2021/01/02 10:12:25;;;;;;;30.38;20.70;;;;;;;7.59;70.79;101295.22;4994008;28;20178;-72
2021/01/02 10:14:51;;;;;;;28.27;20.08;;;;;;;7.45;70.02;101249.78;4999018;28;20030;-72
2021/01/02 10:17:17;;;;;;;36.38;26.08;;;;;;;7.67;69.02;101276.84;5009755;28;20053;-72
2021/01/02 10:19:44;;;;;;;23.83;16.48;;;;;;;7.75;68.93;101273.94;5009956;28;20042;-73
2021/01/02 10:22:10;;;;;;;23.70;17.05;;;;;;;7.89;68.25;101264.50;5009779;28;20040;-73
2021/01/02 10:24:36;;;;;;;22.75;16.10;;;;;;;8.04;67.98;101274.81;5009307;28;20108;-72
2021/01/02 10:27:03;;;;;;;27.58;20.33;;;;;;;8.22;67.86;101277.63;5009584;28;20058;-72
2021/01/02 10:29:28;;;;;;;24.55;18.25;;;;;;;8.32;67.74;101253.28;5009584;28;20018;-72
2021/01/02 10:32:01;;;;;;;29.48;19.98;;;;;;;8.41;67.67;101258.09;5005718;28;20046;-72
2021/01/02 10:34:27;;;;;;;25.98;18.38;;;;;;;8.26;67.03;101216.91;5009889;28;20025;-72
2021/01/02 10:36:53;;;;;;;20.92;15.23;;;;;;;8.12;67.33;101217.81;5006611;28;20057;-72
2021/01/02 10:39:19;;;;;;;24.48;15.40;;;;;;;8.36;67.06;101237.25;5004198;28;20080;-72
2021/01/02 10:41:48;;;;;;;23.52;15.85;;;;;;;8.43;67.61;101225.63;4988740;28;20080;-72
2021/01/02 10:44:14;;;;;;;25.33;14.93;;;;;;;8.62;67.53;101224.16;5008836;28;20046;-73
2021/01/02 10:46:44;;;;;;;23.58;15.75;;;;;;;8.69;67.29;101211.69;4997760;28;20038;-72
2021/01/02 10:49:10;;;;;;;;;;;;;;;8.87;67.52;101217.00;5013245;28;20590;-73
2021/01/02 10:51:35;;;;;;;24.75;16.65;;;;;;;8.83;67.22;101204.75;5000941;28;19976;-73
2021/01/02 10:54:01;;;;;;;29.77;23.50;;;;;;;9.01;66.78;101212.63;4996319;28;20092;-72
2021/01/02 10:56:26;;;;;;;28.45;18.42;;;;;;;9.04;66.75;101215.34;4998910;28;20051;-73
2021/01/02 10:58:53;;;;;;;25.25;17.80;;;;;;;9.12;66.70;101204.59;5001806;28;20490;-73
2021/01/02 11:01:19;;;;;;;27.48;17.45;;;;;;;9.29;66.64;101203.81;5022612;28;20475;-73
2021/01/02 11:03:45;;;;;;;30.73;18.88;;;;;;;9.33;66.61;101207.44;5005497;28;20037;-73
2021/01/02 11:06:14;;;;;;;83.65;50.95;;;;;;;9.45;66.00;101205.53;5009215;28;20040;-73
2021/01/02 11:08:40;;;;;;;31.33;19.48;;;;;;;9.46;66.89;101198.66;5009275;28;20042;-73
2021/01/02 11:11:07;;;;;;;28.23;17.05;;;;;;;9.50;67.15;101192.88;5007766;28;20033;-73
2021/01/02 11:13:33;;;;;;;28.25;17.02;;;;;;;9.59;67.28;101195.94;5010144;28;20357;-75
2021/01/02 11:15:59;;;;;;;27.98;16.75;;;;;;;9.40;68.24;101183.78;5009372;28;20463;-73
2021/01/02 11:18:26;;;;;;;30.02;16.08;;;;;;;9.47;67.43;101174.66;5011940;28;20029;-74
2021/01/02 11:20:51;;;;;;;26.50;15.77;;;;;;;9.34;67.25;101157.69;5011661;28;20030;-74
2021/01/02 11:23:19;;;;;;;24.23;15.32;;;;;;;9.32;67.79;101157.59;5012017;28;20634;-74
2021/01/02 11:25:45;;;;;;;30.33;14.52;;;;;;;9.46;68.40;101178.03;5011825;28;20034;-74
2021/01/02 11:28:12;;;;;;;24.48;13.23;;;;;;;9.54;68.31;101182.84;5010107;28;20033;-74
2021/01/02 11:30:37;;;;;;;30.38;15.40;;;;;;;9.63;67.69;101191.84;5011404;28;20057;-74
2021/01/02 11:33:03;;;;;;;29.40;17.33;;;;;;;9.67;67.41;101196.34;5011647;28;20030;-74
2021/01/02 11:35:29;;;;;;;41.38;22.38;;;;;;;9.70;67.73;101178.47;5012049;28;20033;-74
2021/01/02 11:37:54;;;;;;;20.80;13.95;;;;;;;9.80;66.81;101170.38;5011617;28;20030;-74